Rydal, Georgia
Current Conditions -  °F | °C
As of 5:53 PM on Monday 20 Oct 2014 (Local Time) from KVPC Reporting Station
Clear Clear  
Wind Chill: 70°   Ceiling: Unl
Heat Index: 70°   Visibility: 10mi
Dew Point: 48°   Wind: 0mph
Humidity: 46%   Direction: NA
Pressure: 29.99"   Gusts: NA
Location:  34.35°N, 84.73°W
Report Text: KVPC 202153Z AUTO 00000KT 10SM CLR 21/09 A2999 RMK AO2 SLP148 T02110089
Loading
Personal Weather Stations






























Interactive Weather Map
Tropical Storm Tracking
New forecast layout! Learn more

10-Day Weather Forecast

Advertisements
Track Severe Weather on mobile